createdAt,value
2022-12-25T00:01:35.253Z,5.18
2022-12-25T00:04:04.623Z,4.07
2022-12-25T00:06:32.450Z,4.32
2022-12-25T00:09:00.341Z,5.20
2022-12-25T00:11:28.137Z,4.28
2022-12-25T00:13:55.916Z,5.75
2022-12-25T00:16:26.402Z,5.07
2022-12-25T00:18:54.760Z,3.88
2022-12-25T00:21:23.892Z,3.78
2022-12-25T00:23:55.500Z,3.85
2022-12-25T00:26:24.155Z,4.65
2022-12-25T00:28:53.296Z,4.20
2022-12-25T00:31:22.678Z,3.97
2022-12-25T00:33:51.988Z,4.15
2022-12-25T00:36:22.279Z,5.55
2022-12-25T00:38:51.553Z,4.18
2022-12-25T00:41:43.146Z,3.72
2022-12-25T00:44:13.677Z,3.25
2022-12-25T00:46:42.519Z,4.15
2022-12-25T00:49:11.031Z,4.05
2022-12-25T00:51:38.836Z,3.25
2022-12-25T00:54:08.098Z,3.47
2022-12-25T00:56:36.128Z,4.00
2022-12-25T00:59:04.127Z,3.58
2022-12-25T01:01:32.083Z,3.50
2022-12-25T01:04:00.950Z,3.50
2022-12-25T01:06:28.992Z,3.13
2022-12-25T01:09:14.686Z,2.97
2022-12-25T01:11:43.872Z,4.55
2022-12-25T01:14:12.498Z,3.50
2022-12-25T01:16:40.454Z,3.10
2022-12-25T01:19:10.305Z,3.10
2022-12-25T01:21:38.152Z,3.15
2022-12-25T01:24:06.955Z,3.75
2022-12-25T01:26:34.746Z,3.60
2022-12-25T01:29:04.012Z,3.20
2022-12-25T01:31:31.875Z,3.35
2022-12-25T01:33:59.729Z,2.83
2022-12-25T01:36:27.949Z,3.95
2022-12-25T01:38:56.344Z,3.80
2022-12-25T01:41:26.392Z,3.60
2022-12-25T01:44:07.127Z,3.90
2022-12-25T01:46:35.489Z,3.30
2022-12-25T01:49:07.621Z,2.80
2022-12-25T01:51:40.764Z,3.20
2022-12-25T01:54:13.269Z,2.63
2022-12-25T01:56:43.909Z,3.70
2022-12-25T01:59:17.192Z,3.10
2022-12-25T02:01:45.584Z,2.55
2022-12-25T02:04:21.274Z,2.40
2022-12-25T02:06:52.142Z,3.10
2022-12-25T02:09:20.200Z,2.67
2022-12-25T02:12:00.549Z,2.88
2022-12-25T02:14:34.018Z,2.70
2022-12-25T02:17:14.220Z,2.70
2022-12-25T02:20:02.615Z,2.80
2022-12-25T02:22:43.279Z,3.03
2022-12-25T02:25:30.658Z,2.38
2022-12-25T02:30:41.884Z,2.55
2022-12-25T02:33:33.358Z,3.10
2022-12-25T02:36:07.034Z,2.60
2022-12-25T02:38:38.154Z,2.78
2022-12-25T02:41:10.526Z,2.78
2022-12-25T02:44:03.263Z,3.25
2022-12-25T02:46:51.364Z,3.95
2022-12-25T02:49:39.875Z,3.10
2022-12-25T02:52:30.619Z,3.08
2022-12-25T02:55:26.799Z,2.10
2022-12-25T02:58:15.157Z,3.67
2022-12-25T03:01:02.957Z,2.75
2022-12-25T03:03:51.841Z,2.30
2022-12-25T03:06:39.618Z,3.03
2022-12-25T03:09:27.567Z,2.95
2022-12-25T03:12:00.560Z,2.55
2022-12-25T03:14:46.353Z,2.10
2022-12-25T03:17:15.790Z,2.30
2022-12-25T03:20:10.089Z,2.55
2022-12-25T03:22:55.527Z,2.55
2022-12-25T03:25:41.159Z,2.42
2022-12-25T03:28:08.949Z,2.30
2022-12-25T03:31:03.473Z,2.08
2022-12-25T03:33:47.167Z,2.33
2022-12-25T03:36:21.227Z,3.03
2022-12-25T03:39:20.226Z,2.25
2022-12-25T03:42:08.447Z,3.13
2022-12-25T03:44:59.900Z,2.58
2022-12-25T03:47:48.298Z,2.97
2022-12-25T03:50:38.575Z,2.00
2022-12-25T03:53:28.470Z,2.90
2022-12-25T03:56:14.792Z,3.55
2022-12-25T03:59:10.094Z,3.05
2022-12-25T04:01:55.932Z,2.83
2022-12-25T04:04:41.824Z,2.28
2022-12-25T04:07:28.768Z,2.60
2022-12-25T04:10:19.426Z,3.50
2022-12-25T04:13:04.924Z,2.83
2022-12-25T04:15:56.033Z,2.60
2022-12-25T04:18:41.516Z,2.40
2022-12-25T04:21:27.070Z,2.95
2022-12-25T04:24:13.774Z,1.88
2022-12-25T04:26:59.039Z,2.28
2022-12-25T04:29:44.197Z,2.55
2022-12-25T04:32:30.048Z,1.92
2022-12-25T04:35:15.623Z,2.58
2022-12-25T04:37:43.403Z,2.05
2022-12-25T04:40:13.226Z,1.88
2022-12-25T04:42:41.022Z,2.28
2022-12-25T04:45:10.164Z,1.92
2022-12-25T04:47:37.935Z,1.90
2022-12-25T04:50:06.515Z,1.88
2022-12-25T04:52:36.371Z,2.28
2022-12-25T04:55:05.056Z,1.70
2022-12-25T04:57:34.329Z,1.83
2022-12-25T05:00:02.138Z,1.65
2022-12-25T05:02:30.358Z,1.83
2022-12-25T05:04:58.278Z,2.28
2022-12-25T05:07:26.003Z,2.53
2022-12-25T05:09:53.782Z,1.90
2022-12-25T05:12:21.558Z,1.65
2022-12-25T05:14:50.691Z,2.10
2022-12-25T05:17:18.521Z,1.83
2022-12-25T05:19:46.303Z,1.75
2022-12-25T05:22:14.123Z,2.10
2022-12-25T05:24:42.103Z,2.00
2022-12-25T05:27:09.909Z,2.10
2022-12-25T05:29:37.722Z,1.95
2022-12-25T05:32:07.325Z,2.50
2022-12-25T05:34:35.072Z,1.40
2022-12-25T05:37:02.854Z,1.63
2022-12-25T05:39:30.755Z,2.05
2022-12-25T05:41:58.529Z,1.73
2022-12-25T05:44:26.382Z,1.70
2022-12-25T05:46:54.194Z,1.70
2022-12-25T05:49:23.550Z,2.10
2022-12-25T05:51:51.300Z,1.65
2022-12-25T05:54:19.051Z,2.00
2022-12-25T05:56:46.877Z,2.17
2022-12-25T05:59:14.640Z,1.80
2022-12-25T06:01:42.564Z,1.52
2022-12-25T06:04:12.923Z,1.48
2022-12-25T06:06:42.327Z,1.50
2022-12-25T06:09:12.514Z,1.80
2022-12-25T06:11:40.293Z,1.67
2022-12-25T06:14:08.423Z,1.40
2022-12-25T06:16:38.487Z,1.50
2022-12-25T06:19:06.941Z,1.50
2022-12-25T06:21:35.202Z,1.33
2022-12-25T06:24:04.770Z,1.55
2022-12-25T06:26:32.664Z,1.88
2022-12-25T06:29:00.553Z,1.48
2022-12-25T06:31:28.365Z,1.85
2022-12-25T06:33:56.638Z,1.70
2022-12-25T06:36:27.097Z,2.00
2022-12-25T06:38:54.917Z,1.75
2022-12-25T06:41:25.841Z,1.20
2022-12-25T06:43:55.414Z,2.08
2022-12-25T06:46:25.366Z,1.70
2022-12-25T06:48:53.392Z,1.60
2022-12-25T06:51:22.795Z,2.13
2022-12-25T06:53:51.904Z,1.60
2022-12-25T06:56:21.440Z,1.50
2022-12-25T06:58:52.052Z,1.23
2022-12-25T07:01:23.123Z,1.52
2022-12-25T07:03:54.130Z,1.67
2022-12-25T07:06:21.912Z,2.58
2022-12-25T07:08:49.786Z,1.20
2022-12-25T07:11:17.910Z,1.52
2022-12-25T07:13:45.749Z,1.65
2022-12-25T07:16:15.571Z,1.50
2022-12-25T07:18:43.870Z,1.35
2022-12-25T07:21:13.765Z,1.80
2022-12-25T07:23:42.239Z,1.50
2022-12-25T07:26:12.161Z,1.77
2022-12-25T07:28:40.325Z,1.48
2022-12-25T07:31:11.766Z,1.85
2022-12-25T07:33:41.020Z,1.30
2022-12-25T07:36:10.161Z,1.50
2022-12-25T07:38:41.030Z,1.38
2022-12-25T07:41:10.163Z,1.50
2022-12-25T07:43:38.263Z,1.75
2022-12-25T07:46:06.566Z,1.52
2022-12-25T07:48:34.745Z,1.80
2022-12-25T07:51:06.239Z,1.80
2022-12-25T07:53:34.936Z,1.65
2022-12-25T07:56:05.525Z,1.67
2022-12-25T07:58:33.673Z,1.38
2022-12-25T08:01:05.239Z,1.67
2022-12-25T08:03:33.893Z,1.92
2022-12-25T08:06:07.245Z,2.05
2022-12-25T08:08:35.400Z,1.58
2022-12-25T08:11:03.357Z,1.85
2022-12-25T08:13:32.384Z,1.80
2022-12-25T08:16:01.231Z,1.70
2022-12-25T08:18:30.625Z,1.98
2022-12-25T08:21:02.857Z,1.70
2022-12-25T08:23:32.130Z,1.63
2022-12-25T08:26:05.056Z,1.40
2022-12-25T08:28:34.577Z,1.38
2022-12-25T08:31:07.996Z,1.83
2022-12-25T08:33:36.543Z,2.00
2022-12-25T08:36:05.248Z,1.60
2022-12-25T08:38:34.761Z,1.63
2022-12-25T08:41:02.891Z,2.47
2022-12-25T08:43:30.888Z,1.95
2022-12-25T08:45:58.767Z,1.52
2022-12-25T08:48:27.179Z,2.10
2022-12-25T08:50:55.047Z,2.00
2022-12-25T08:53:23.033Z,1.67
2022-12-25T08:55:58.279Z,2.15
2022-12-25T08:58:26.713Z,1.70
2022-12-25T09:00:54.972Z,1.80
2022-12-25T09:03:23.199Z,2.05
2022-12-25T09:05:51.177Z,2.47
2022-12-25T09:08:19.036Z,1.83
2022-12-25T09:10:46.941Z,2.40
2022-12-25T09:13:16.271Z,2.05
2022-12-25T09:15:44.124Z,2.03
2022-12-25T09:18:12.160Z,2.85
2022-12-25T09:20:39.973Z,2.47
2022-12-25T09:23:13.484Z,1.60
2022-12-25T09:25:42.141Z,1.80
2022-12-25T09:28:09.923Z,2.28
2022-12-25T09:30:39.624Z,2.67
2022-12-25T09:33:07.581Z,2.25
2022-12-25T09:35:35.687Z,1.90
2022-12-25T09:38:03.549Z,2.28
2022-12-25T09:40:33.163Z,2.72
2022-12-25T09:43:03.277Z,1.98
2022-12-25T09:45:36.269Z,1.95
2022-12-25T09:48:06.044Z,2.25
2022-12-25T09:50:41.725Z,2.83
2022-12-25T09:53:15.942Z,2.22
2022-12-25T09:55:49.605Z,2.20
2022-12-25T09:58:17.492Z,2.30
2022-12-25T10:00:55.327Z,1.73
2022-12-25T10:03:43.250Z,2.33
2022-12-25T10:06:20.801Z,2.83
2022-12-25T10:09:21.369Z,2.20
2022-12-25T10:12:11.338Z,1.95
2022-12-25T10:14:47.882Z,2.10
2022-12-25T10:17:32.393Z,2.30
2022-12-25T10:20:08.697Z,2.42
2022-12-25T10:22:41.843Z,3.13
2022-12-25T10:25:17.525Z,2.05
2022-12-25T10:27:45.548Z,1.90
2022-12-25T10:30:17.715Z,2.10
2022-12-25T10:32:46.556Z,2.13
2022-12-25T10:35:18.659Z,2.10
2022-12-25T10:37:54.093Z,2.03
2022-12-25T10:40:32.188Z,1.80
2022-12-25T10:43:09.227Z,2.20
2022-12-25T10:45:45.171Z,2.35
2022-12-25T10:48:20.905Z,2.00
2022-12-25T10:50:50.186Z,2.50
2022-12-25T10:53:24.144Z,2.53
2022-12-25T10:55:56.964Z,2.17
2022-12-25T10:58:24.803Z,2.10
2022-12-25T11:00:54.921Z,2.35
2022-12-25T11:03:26.044Z,2.17
2022-12-25T11:05:55.601Z,2.58
2022-12-25T11:08:26.246Z,3.10
2022-12-25T11:10:56.452Z,2.35
2022-12-25T11:13:27.322Z,2.30
2022-12-25T11:16:07.023Z,2.28
2022-12-25T11:18:44.492Z,2.90
2022-12-25T11:21:19.763Z,2.70
2022-12-25T11:23:51.574Z,2.70
2022-12-25T11:26:19.958Z,2.28
2022-12-25T11:28:50.055Z,1.88
2022-12-25T11:31:20.247Z,2.30
2022-12-25T11:33:55.033Z,2.33
2022-12-25T11:36:30.429Z,2.83
2022-12-25T11:39:06.752Z,3.03
2022-12-25T11:41:37.464Z,2.70
2022-12-25T11:44:12.355Z,2.70
2022-12-25T11:46:46.889Z,2.63
2022-12-25T11:49:19.160Z,2.30
2022-12-25T11:51:51.789Z,2.50
2022-12-25T11:54:26.310Z,2.55
2022-12-25T11:56:54.538Z,2.42
2022-12-25T11:59:26.821Z,2.40
2022-12-25T12:01:59.989Z,2.47
2022-12-25T12:04:38.465Z,2.90
2022-12-25T12:07:21.872Z,2.40
2022-12-25T12:09:57.841Z,2.42
2022-12-25T12:12:35.393Z,2.50
2022-12-25T12:15:12.561Z,2.13
2022-12-25T12:17:40.431Z,2.75
2022-12-25T12:20:27.777Z,2.60
2022-12-25T12:25:25.240Z,2.17
2022-12-25T12:28:02.867Z,2.80
2022-12-25T12:30:35.817Z,3.30
2022-12-25T12:33:06.236Z,3.55
2022-12-25T12:35:37.235Z,2.70
2022-12-25T12:38:10.965Z,2.60
2022-12-25T12:40:42.937Z,2.67
2022-12-25T12:43:29.865Z,3.22
2022-12-25T12:46:02.439Z,2.30
2022-12-25T12:48:31.590Z,2.67
2022-12-25T12:51:10.079Z,2.10
2022-12-25T12:53:40.441Z,2.53
2022-12-25T12:56:13.924Z,2.60
2022-12-25T12:58:48.720Z,2.47
2022-12-25T13:01:40.049Z,2.50
2022-12-25T13:04:28.679Z,2.10
2022-12-25T13:07:05.378Z,2.40
2022-12-25T13:09:51.043Z,2.50
2022-12-25T13:12:20.369Z,2.53
2022-12-25T13:14:49.783Z,3.00
2022-12-25T13:17:21.227Z,2.42
2022-12-25T13:19:53.837Z,2.30
2022-12-25T13:22:26.312Z,2.13
2022-12-25T13:25:00.482Z,2.65
2022-12-25T13:27:30.559Z,3.20
2022-12-25T13:29:59.499Z,2.83
2022-12-25T13:32:29.910Z,2.30
2022-12-25T13:34:58.344Z,2.22
2022-12-25T13:37:28.703Z,2.15
2022-12-25T13:40:00.500Z,2.35
2022-12-25T13:42:29.830Z,2.38
2022-12-25T13:45:00.439Z,2.55
2022-12-25T13:47:32.717Z,2.67
2022-12-25T13:50:03.509Z,2.50
2022-12-25T13:52:36.534Z,2.72
2022-12-25T13:55:13.686Z,2.63
2022-12-25T13:57:43.712Z,2.75
2022-12-25T14:00:19.537Z,3.13
2022-12-25T14:02:48.195Z,2.93
2022-12-25T14:05:27.871Z,2.45
2022-12-25T14:07:57.873Z,2.88
2022-12-25T14:10:30.127Z,2.60
2022-12-25T14:13:01.866Z,2.38
2022-12-25T14:15:33.266Z,2.80
2022-12-25T14:18:01.704Z,2.53
2022-12-25T14:20:31.948Z,2.40
2022-12-25T14:23:00.949Z,3.75
2022-12-25T14:25:32.292Z,2.72
2022-12-25T14:28:06.530Z,2.75
2022-12-25T14:30:34.355Z,2.35
2022-12-25T14:33:03.386Z,2.72
2022-12-25T14:35:32.134Z,2.65
2022-12-25T14:38:01.417Z,2.70
2022-12-25T14:40:34.021Z,2.40
2022-12-25T14:43:03.429Z,2.30
2022-12-25T14:45:33.319Z,2.30
2022-12-25T14:48:04.319Z,2.30
2022-12-25T14:50:37.367Z,2.25
2022-12-25T14:53:05.845Z,2.60
2022-12-25T14:55:35.005Z,2.80
2022-12-25T14:58:05.650Z,2.80
2022-12-25T15:00:36.483Z,2.72
2022-12-25T15:03:07.815Z,2.53
2022-12-25T15:05:38.076Z,2.83
2022-12-25T15:08:24.336Z,2.38
2022-12-25T15:11:01.611Z,2.75
2022-12-25T15:13:31.814Z,2.50
2022-12-25T15:16:03.457Z,2.83
2022-12-25T15:18:35.435Z,2.90
2022-12-25T15:21:03.720Z,2.90
2022-12-25T15:23:31.513Z,3.08
2022-12-25T15:26:00.653Z,2.78
2022-12-25T15:28:28.447Z,2.30
2022-12-25T15:30:56.423Z,2.28
2022-12-25T15:33:24.401Z,2.60
2022-12-25T15:35:52.237Z,2.53
2022-12-25T15:38:20.210Z,2.83
2022-12-25T15:40:48.223Z,2.83
2022-12-25T15:43:39.796Z,2.67
2022-12-25T15:46:06.734Z,2.50
2022-12-25T15:48:34.566Z,2.30
2022-12-25T15:51:03.162Z,2.88
2022-12-25T15:53:31.068Z,2.88
2022-12-25T15:55:58.874Z,2.90
2022-12-25T15:58:27.982Z,2.72
2022-12-25T16:00:55.776Z,3.30
2022-12-25T16:03:23.598Z,3.00
2022-12-25T16:05:51.499Z,3.17
2022-12-25T16:08:19.310Z,2.25
2022-12-25T16:10:47.378Z,2.80
2022-12-25T16:13:15.593Z,2.78
2022-12-25T16:15:45.071Z,2.85
2022-12-25T16:18:12.989Z,2.90
2022-12-25T16:20:41.107Z,2.72
2022-12-25T16:23:09.077Z,2.97
2022-12-25T16:25:36.864Z,3.30
2022-12-25T16:28:06.309Z,3.35
2022-12-25T16:30:34.921Z,2.60
2022-12-25T16:33:04.263Z,3.10
2022-12-25T16:35:32.880Z,2.97
2022-12-25T16:38:00.784Z,2.97
2022-12-25T16:40:29.164Z,2.38
2022-12-25T16:42:57.407Z,2.92
2022-12-25T16:45:25.364Z,2.72
2022-12-25T16:47:53.147Z,2.83
2022-12-25T16:50:22.441Z,3.38
2022-12-25T16:52:50.253Z,3.15
2022-12-25T16:55:18.202Z,3.53
2022-12-25T16:57:47.854Z,2.88
2022-12-25T17:00:16.717Z,2.97
2022-12-25T17:02:45.149Z,3.22
2022-12-25T17:05:13.142Z,3.58
2022-12-25T17:07:43.087Z,3.28
2022-12-25T17:10:12.456Z,3.35
2022-12-25T17:12:40.306Z,3.08
2022-12-25T17:15:09.056Z,3.50
2022-12-25T17:17:36.875Z,3.63
2022-12-25T17:20:05.488Z,3.28
2022-12-25T17:22:33.676Z,4.28
2022-12-25T17:25:03.272Z,3.88
2022-12-25T17:27:31.078Z,4.22
2022-12-25T17:29:59.018Z,5.43
2022-12-25T17:32:26.956Z,5.15
2022-12-25T17:34:54.722Z,4.40
2022-12-25T17:37:22.491Z,5.13
2022-12-25T17:39:50.324Z,4.80
2022-12-25T17:42:19.520Z,5.32
2022-12-25T17:44:47.470Z,5.15
2022-12-25T17:47:15.405Z,4.40
2022-12-25T17:49:43.179Z,4.80
2022-12-25T17:52:10.947Z,5.15
2022-12-25T17:54:40.731Z,6.25
2022-12-25T17:57:08.937Z,5.60
2022-12-25T17:59:38.104Z,5.43
2022-12-25T18:02:06.452Z,4.95
2022-12-25T18:04:34.381Z,4.85
2022-12-25T18:07:04.251Z,5.40
2022-12-25T18:09:32.196Z,5.63
2022-12-25T18:12:00.060Z,5.50
2022-12-25T18:14:27.881Z,5.70
2022-12-25T18:16:57.331Z,5.65
2022-12-25T18:19:25.294Z,5.47
2022-12-25T18:21:53.096Z,5.00
2022-12-25T18:24:20.855Z,5.40
2022-12-25T18:26:49.214Z,5.30
2022-12-25T18:29:17.137Z,5.57
2022-12-25T18:31:44.987Z,5.22
2022-12-25T18:34:14.235Z,4.85
2022-12-25T18:36:42.156Z,5.65
2022-12-25T18:39:10.062Z,5.07
2022-12-25T18:41:58.076Z,5.35
2022-12-25T18:44:25.851Z,5.43
2022-12-25T18:46:53.930Z,4.75
2022-12-25T18:49:23.094Z,5.20
2022-12-25T18:51:50.900Z,5.55
2022-12-25T18:54:19.255Z,5.10
2022-12-25T18:56:52.104Z,5.00
2022-12-25T18:59:21.056Z,5.10
2022-12-25T19:01:48.989Z,4.78
2022-12-25T19:04:17.096Z,5.20
2022-12-25T19:06:46.423Z,5.32
2022-12-25T19:09:14.184Z,5.20
2022-12-25T19:11:46.607Z,5.20
2022-12-25T19:14:15.445Z,5.00
2022-12-25T19:16:43.520Z,4.80
2022-12-25T19:19:11.388Z,5.40
2022-12-25T19:21:39.290Z,4.95
2022-12-25T19:24:08.871Z,5.35
2022-12-25T19:26:37.732Z,5.43
2022-12-25T19:29:05.654Z,5.15
2022-12-25T19:31:33.765Z,5.38
2022-12-25T19:34:01.710Z,5.53
2022-12-25T19:36:29.489Z,5.40
2022-12-25T19:38:57.233Z,5.78
2022-12-25T19:41:27.653Z,6.13
2022-12-25T19:43:55.487Z,5.43
2022-12-25T19:46:25.956Z,5.90
2022-12-25T19:48:54.653Z,6.50
2022-12-25T19:51:24.813Z,5.93
2022-12-25T19:53:53.429Z,5.20
2022-12-25T19:56:21.236Z,5.47
2022-12-25T19:58:50.545Z,6.20
2022-12-25T20:01:20.397Z,5.47
2022-12-25T20:03:49.529Z,6.43
2022-12-25T20:06:21.851Z,6.15
2022-12-25T20:08:52.357Z,5.50
2022-12-25T20:11:21.346Z,6.03
2022-12-25T20:13:50.621Z,5.60
2022-12-25T20:16:19.068Z,6.20
2022-12-25T20:18:46.962Z,6.78
2022-12-25T20:21:17.835Z,5.85
2022-12-25T20:23:47.824Z,5.80
2022-12-25T20:26:17.292Z,6.03
2022-12-25T20:28:45.448Z,5.88
2022-12-25T20:31:17.603Z,7.47
2022-12-25T20:33:45.760Z,7.10
2022-12-25T20:36:14.073Z,6.90
2022-12-25T20:38:42.405Z,7.10
2022-12-25T20:41:29.003Z,7.30
2022-12-25T20:43:57.479Z,6.88
2022-12-25T20:46:27.356Z,6.95
2022-12-25T20:48:55.463Z,6.82
2022-12-25T20:51:25.259Z,6.53
2022-12-25T20:53:54.368Z,7.63
2022-12-25T20:56:25.851Z,6.68
2022-12-25T20:58:55.096Z,7.47
2022-12-25T21:01:23.104Z,7.97
2022-12-25T21:03:52.662Z,7.38
2022-12-25T21:06:21.173Z,7.00
2022-12-25T21:08:48.963Z,6.82
2022-12-25T21:11:18.067Z,6.35
2022-12-25T21:13:46.806Z,7.18
2022-12-25T21:16:17.214Z,7.00
2022-12-25T21:18:45.413Z,7.00
2022-12-25T21:21:14.718Z,7.20
2022-12-25T21:23:42.735Z,6.22
2022-12-25T21:26:13.125Z,6.57
2022-12-25T21:28:40.952Z,7.28
2022-12-25T21:31:10.823Z,6.85
2022-12-25T21:33:53.142Z,6.93
2022-12-25T21:36:26.803Z,6.75
2022-12-25T21:38:56.848Z,6.97
2022-12-25T21:41:25.461Z,6.57
2022-12-25T21:43:53.728Z,6.97
2022-12-25T21:46:21.745Z,7.05
2022-12-25T21:48:50.083Z,7.53
2022-12-25T21:51:36.830Z,7.70
2022-12-25T21:54:07.277Z,7.70
2022-12-25T21:56:43.029Z,7.90
2022-12-25T21:59:14.395Z,7.00
2022-12-25T22:01:42.596Z,7.18
2022-12-25T22:04:11.231Z,6.85
2022-12-25T22:06:56.677Z,7.28
2022-12-25T22:09:26.034Z,6.72
2022-12-25T22:12:11.491Z,7.85
2022-12-25T22:14:54.883Z,7.07
2022-12-25T22:17:42.330Z,7.40
2022-12-25T22:20:11.763Z,8.13
2022-12-25T22:22:39.721Z,7.30
2022-12-25T22:25:10.872Z,7.50
2022-12-25T22:27:40.525Z,6.68
2022-12-25T22:30:10.336Z,7.85
2022-12-25T22:32:38.219Z,7.72
2022-12-25T22:35:06.905Z,6.82
2022-12-25T22:37:36.067Z,7.18
2022-12-25T22:40:05.332Z,6.82
2022-12-25T22:42:35.118Z,7.65
2022-12-25T22:45:03.015Z,7.43
2022-12-25T22:47:30.893Z,7.93
2022-12-25T22:49:58.820Z,6.90
2022-12-25T22:52:26.753Z,7.30
2022-12-25T22:54:54.570Z,7.22
2022-12-25T22:57:22.391Z,7.55
2022-12-25T22:59:52.568Z,8.40
2022-12-25T23:02:20.702Z,8.73
2022-12-25T23:04:48.905Z,6.93
2022-12-25T23:07:17.327Z,6.82
2022-12-25T23:09:45.925Z,7.03
2022-12-25T23:12:27.623Z,6.95
2022-12-25T23:14:56.957Z,7.53
2022-12-25T23:17:42.304Z,7.13
2022-12-25T23:20:28.937Z,6.97
2022-12-25T23:23:25.899Z,7.35
2022-12-25T23:26:08.980Z,7.37
2022-12-25T23:28:55.385Z,7.60
2022-12-25T23:31:28.044Z,6.97
2022-12-25T23:33:55.970Z,7.85
2022-12-25T23:36:23.825Z,7.85
2022-12-25T23:38:51.764Z,7.57
2022-12-25T23:41:19.725Z,7.97
2022-12-25T23:43:47.545Z,8.90
2022-12-25T23:46:15.534Z,8.40
2022-12-25T23:48:44.700Z,7.97
2022-12-25T23:51:12.657Z,7.63
2022-12-25T23:53:40.446Z,7.93
2022-12-25T23:56:10.455Z,7.22
2022-12-25T23:58:38.383Z,7.90
